Time;durP1;ratioP1;P1;durP2;ratioP2;P2;SDS_P1;SDS_P2;PMS_P1;PMS_P2;Temp;Humidity;BMP_temperature;BMP_pressure;BME280_temperature;BME280_humidity;BME280_pressure;Samples;Min_cycle;Max_cycle;Signal;HPM_P1;HPM_P2
2021/10/15 00:00:22;;;;;;;18.20;9.82;;;;;;;12.85;66.28;101497.47;5114993;28;20048;-63
2021/10/15 00:02:50;;;;;;;15.60;9.20;;;;;;;12.74;66.02;101485.00;5115201;28;20044;-62
2021/10/15 00:05:17;;;;;;;19.45;9.48;;;;;;;12.74;66.13;101485.81;5115800;28;20047;-63
2021/10/15 00:07:44;;;;;;;20.30;9.50;;;;;;;12.90;65.75;101484.34;5115414;28;20491;-63
2021/10/15 00:10:11;;;;;;;23.45;10.65;;;;;;;12.90;65.17;101484.34;5115459;28;20067;-63
2021/10/15 00:12:39;;;;;;;20.77;9.68;;;;;;;12.96;65.21;101496.09;5115394;28;20043;-62
2021/10/15 00:15:06;;;;;;;15.43;8.93;;;;;;;13.05;64.63;101485.97;5115124;28;20063;-61
2021/10/15 00:17:34;;;;;;;16.63;9.73;;;;;;;13.03;64.44;101489.06;5115352;28;20394;-63
2021/10/15 00:20:01;;;;;;;18.08;8.95;;;;;;;13.09;64.57;101487.81;5130953;28;20466;-62
2021/10/15 00:22:28;;;;;;;18.05;9.35;;;;;;;13.09;64.44;101484.25;5114803;28;20051;-63
2021/10/15 00:24:56;;;;;;;15.50;9.02;;;;;;;13.20;64.04;101491.97;5115080;28;20040;-62
2021/10/15 00:27:23;;;;;;;17.75;12.05;;;;;;;12.92;64.60;101490.38;5096515;28;20070;-63
2021/10/15 00:29:50;;;;;;;33.25;19.13;;;;;;;12.77;64.97;101484.38;5115239;28;20125;-62
2021/10/15 00:32:17;;;;;;;35.95;20.90;;;;;;;12.84;64.33;101482.81;5116017;28;20455;-65
2021/10/15 00:34:45;;;;;;;39.03;25.38;;;;;;;12.46;65.77;101482.22;5118656;28;20044;-63
2021/10/15 00:37:12;;;;;;;41.40;22.88;;;;;;;12.50;65.53;101481.63;5118763;28;20058;-63
2021/10/15 00:39:40;;;;;;;32.38;19.73;;;;;;;12.48;65.76;101487.47;5108017;28;20040;-63
2021/10/15 00:42:07;;;;;;;29.92;18.23;;;;;;;12.55;65.86;101487.06;5098325;28;20056;-63
2021/10/15 00:44:36;;;;;;;31.42;18.77;;;;;;;12.76;65.09;101478.00;5098016;28;20048;-67
2021/10/15 00:47:04;;;;;;;33.50;18.43;;;;;;;13.02;64.11;101475.56;5096789;28;20048;-63
2021/10/15 00:49:31;;;;;;;31.77;18.25;;;;;;;12.94;63.86;101479.81;5098090;28;20052;-62
2021/10/15 00:52:00;;;;;;;27.75;16.00;;;;;;;12.77;64.29;101478.84;5098106;28;20059;-62
2021/10/15 00:54:27;;;;;;;31.65;17.23;;;;;;;12.70;65.18;101482.03;5097678;28;20048;-63
2021/10/15 00:56:54;;;;;;;35.35;17.35;;;;;;;12.82;64.90;101478.72;5098191;28;20048;-64
2021/10/15 00:59:22;;;;;;;30.45;17.95;;;;;;;12.59;65.68;101480.59;5098190;28;20052;-63
2021/10/15 01:01:49;;;;;;;27.38;15.73;;;;;;;12.54;66.20;101477.94;5097811;28;20434;-63
2021/10/15 01:04:18;;;;;;;25.45;13.45;;;;;;;12.56;66.17;101469.34;5097564;28;20048;-63
2021/10/15 01:06:45;;;;;;;18.88;12.07;;;;;;;12.64;66.07;101466.66;5097758;28;20671;-62
2021/10/15 01:09:13;;;;;;;18.60;12.10;;;;;;;12.74;65.73;101468.41;5096473;28;20048;-63
2021/10/15 01:11:40;;;;;;;21.63;11.32;;;;;;;12.64;66.14;101460.34;5097758;28;20048;-62
2021/10/15 01:14:08;;;;;;;16.90;10.02;;;;;;;12.61;65.92;101463.69;5097179;28;20052;-62
2021/10/15 01:16:35;;;;;;;16.60;9.90;;;;;;;12.61;66.29;101459.00;5096033;28;20047;-63
2021/10/15 01:19:03;;;;;;;21.00;9.48;;;;;;;12.60;66.18;101465.66;5095945;28;20060;-63
2021/10/15 01:21:31;;;;;;;16.77;10.02;;;;;;;12.51;66.21;101470.28;5095750;28;20060;-63
2021/10/15 01:23:59;;;;;;;31.05;8.80;;;;;;;12.64;66.05;101460.34;5097219;28;20058;-62
2021/10/15 01:26:26;;;;;;;13.48;8.55;;;;;;;12.70;66.22;101461.84;5097399;28;20051;-63
2021/10/15 01:28:55;;;;;;;13.55;8.27;;;;;;;12.71;65.97;101463.50;5096181;28;20058;-63
2021/10/15 01:31:23;;;;;;;16.55;7.95;;;;;;;12.64;66.27;101449.28;5097022;28;20067;-62
2021/10/15 01:33:51;;;;;;;15.32;8.00;;;;;;;12.71;65.84;101446.91;5097072;28;20052;-63
2021/10/15 01:36:18;;;;;;;17.80;8.32;;;;;;;12.59;66.29;101446.63;5095907;28;20538;-63
2021/10/15 01:38:45;;;;;;;16.20;8.77;;;;;;;12.51;66.62;101448.16;5100122;28;20047;-62
2021/10/15 01:41:12;;;;;;;13.85;9.60;;;;;;;12.15;67.93;101450.03;5117629;28;20058;-63
2021/10/15 01:43:40;;;;;;;14.23;8.38;;;;;;;11.96;68.94;101449.28;5116673;28;20483;-62
2021/10/15 01:46:07;;;;;;;16.92;8.95;;;;;;;12.19;68.46;101443.56;5116868;28;20048;-63
2021/10/15 01:48:34;;;;;;;15.32;7.88;;;;;;;12.13;68.40;101443.97;5116809;28;20047;-63
2021/10/15 01:51:02;;;;;;;15.02;7.68;;;;;;;12.09;68.65;101448.47;5117612;28;20058;-62
2021/10/15 01:53:30;;;;;;;13.07;8.13;;;;;;;12.06;68.78;101438.03;5117230;28;20415;-62
2021/10/15 01:55:57;;;;;;;13.48;8.45;;;;;;;11.79;69.63;101433.28;5117182;28;20070;-62
2021/10/15 01:58:25;;;;;;;14.57;7.90;;;;;;;11.66;70.20;101438.78;5117049;28;20058;-63
2021/10/15 02:00:52;;;;;;;12.00;7.60;;;;;;;11.96;69.54;101433.53;5114835;28;20055;-63
2021/10/15 02:03:20;;;;;;;18.15;8.25;;;;;;;12.21;68.55;101432.22;5117020;28;20048;-62
2021/10/15 02:05:47;;;;;;;13.23;7.88;;;;;;;12.01;69.05;101438.94;5117032;28;20058;-62
2021/10/15 02:08:14;;;;;;;14.88;8.20;;;;;;;11.99;69.20;101432.94;5116537;28;20158;-63
2021/10/15 02:10:42;;;;;;;18.77;8.25;;;;;;;12.03;68.97;101430.38;5116759;28;20051;-62
2021/10/15 02:13:09;;;;;;;15.52;7.30;;;;;;;12.04;68.90;101432.00;5116866;28;20061;-63
2021/10/15 02:15:38;;;;;;;14.45;7.70;;;;;;;11.87;69.46;101434.53;5098610;28;20402;-62
2021/10/15 02:18:08;;;;;;;14.05;7.70;;;;;;;11.93;69.22;101433.31;5115458;28;20061;-62
2021/10/15 02:20:35;;;;;;;15.30;7.60;;;;;;;11.96;69.38;101428.00;5115373;28;20062;-62
2021/10/15 02:23:03;;;;;;;14.27;7.40;;;;;;;11.95;69.56;101426.38;5116730;28;20498;-63
2021/10/15 02:25:30;;;;;;;12.98;7.60;;;;;;;11.91;69.50;101422.56;5115538;28;20058;-65
2021/10/15 02:27:57;;;;;;;13.00;7.50;;;;;;;11.77;69.96;101420.94;5116785;28;20055;-62
2021/10/15 02:30:26;;;;;;;13.15;7.85;;;;;;;11.94;69.52;101421.97;5132015;27;20043;-62
2021/10/15 02:32:53;;;;;;;12.88;6.78;;;;;;;11.90;69.68;101411.84;5116740;28;20048;-63
2021/10/15 02:35:21;;;;;;;11.25;6.60;;;;;;;11.94;69.62;101416.44;5116578;28;20062;-62
2021/10/15 02:37:48;;;;;;;12.05;7.47;;;;;;;11.85;70.11;101422.97;5116581;28;20047;-63
2021/10/15 02:40:15;;;;;;;12.15;7.50;;;;;;;11.53;71.01;101412.78;5100690;28;20059;-62
2021/10/15 02:42:42;;;;;;;16.65;7.32;;;;;;;11.61;71.23;101401.03;5095968;28;20517;-62
2021/10/15 02:45:10;;;;;;;10.68;6.80;;;;;;;11.85;70.20;101403.66;5095538;28;20052;-62
2021/10/15 02:47:37;;;;;;;13.00;7.35;;;;;;;11.77;70.29;101402.41;5095712;28;20051;-62
2021/10/15 02:50:06;;;;;;;14.82;7.20;;;;;;;11.76;70.37;101398.03;5095652;28;20418;-63
2021/10/15 02:52:34;;;;;;;17.40;8.07;;;;;;;11.64;70.74;101403.22;5094504;28;20048;-62
2021/10/15 02:55:01;;;;;;;13.23;7.95;;;;;;;11.46;71.56;101406.81;5095453;28;20040;-62
2021/10/15 02:57:28;;;;;;;10.95;8.13;;;;;;;11.42;71.52;101410.50;5077181;28;20075;-62
2021/10/15 02:59:55;;;;;;;15.77;8.30;;;;;;;11.37;72.06;101411.38;5094201;28;20048;-62
2021/10/15 03:02:23;;;;;;;15.10;8.13;;;;;;;11.50;71.63;101407.88;5094339;28;20078;-63
2021/10/15 03:04:50;;;;;;;15.63;8.57;;;;;;;11.57;71.24;101405.53;5094329;28;20055;-62
2021/10/15 03:07:18;;;;;;;12.45;7.63;;;;;;;11.73;70.82;101408.88;5095216;28;20051;-62
2021/10/15 03:09:48;;;;;;;15.80;7.65;;;;;;;11.62;70.84;101399.91;5095614;28;20051;-63
2021/10/15 03:12:15;;;;;;;13.60;8.00;;;;;;;11.70;70.95;101399.22;5094013;28;20052;-62
2021/10/15 03:14:43;;;;;;;14.38;8.05;;;;;;;11.61;70.74;101397.47;5095427;28;20048;-62
2021/10/15 03:17:12;;;;;;;14.05;8.00;;;;;;;11.65;70.94;101396.56;5095411;28;20040;-62
2021/10/15 03:19:39;;;;;;;13.23;8.23;;;;;;;11.67;70.45;101396.25;5095282;28;20403;-64
2021/10/15 03:22:06;;;;;;;16.48;8.20;;;;;;;11.63;70.56;101389.72;5077692;28;20055;-63
2021/10/15 03:24:33;;;;;;;13.18;8.18;;;;;;;11.71;70.40;101394.53;5095436;28;20047;-62
2021/10/15 03:27:01;;;;;;;12.07;8.00;;;;;;;11.35;71.74;101394.31;5095504;28;20052;-62
2021/10/15 03:29:28;;;;;;;16.15;7.43;;;;;;;10.97;73.43;101401.00;5095195;28;20048;-62
2021/10/15 03:31:55;;;;;;;11.07;7.78;;;;;;;11.21;73.13;101393.44;5095113;28;20052;-62
2021/10/15 03:34:23;;;;;;;13.48;6.95;;;;;;;11.18;72.66;101397.66;5093359;28;20049;-61
2021/10/15 03:36:50;;;;;;;16.38;7.65;;;;;;;11.10;73.11;101408.53;5094133;28;20048;-62
2021/10/15 03:39:17;;;;;;;15.55;8.23;;;;;;;11.07;73.53;101398.91;5101379;28;20066;-62
2021/10/15 03:41:45;;;;;;;20.02;8.05;;;;;;;11.24;73.09;101396.44;5097009;28;20055;-66
2021/10/15 03:44:12;;;;;;;15.60;7.43;;;;;;;11.44;72.34;101402.75;5115898;28;20044;-63
2021/10/15 03:46:39;;;;;;;13.65;7.50;;;;;;;11.49;71.90;101403.44;5114147;28;20048;-67
2021/10/15 03:49:06;;;;;;;14.73;6.95;;;;;;;11.43;72.14;101403.84;5115487;28;20051;-66
2021/10/15 03:51:34;;;;;;;14.48;6.72;;;;;;;11.20;72.84;101394.59;5115846;28;20048;-67
2021/10/15 03:54:01;;;;;;;15.68;7.18;;;;;;;11.11;73.07;101397.22;5131613;28;20039;-62
2021/10/15 03:56:28;;;;;;;11.50;6.60;;;;;;;11.31;72.76;101396.06;5115666;28;20051;-62
2021/10/15 03:58:56;;;;;;;14.52;6.85;;;;;;;11.49;72.36;101397.94;5115470;28;20509;-66
2021/10/15 04:01:23;;;;;;;17.15;7.03;;;;;;;11.33;72.40;101394.63;5131080;28;20052;-67
2021/10/15 04:03:50;;;;;;;15.20;6.97;;;;;;;11.32;72.52;101393.00;5115457;28;20054;-67
2021/10/15 04:06:18;;;;;;;14.23;7.32;;;;;;;11.43;72.38;101390.06;5116082;28;20078;-62
2021/10/15 04:08:45;;;;;;;11.88;6.63;;;;;;;11.57;71.96;101390.91;5118107;28;20066;-62
2021/10/15 04:11:12;;;;;;;12.70;6.28;;;;;;;11.54;71.71;101395.06;5117854;28;20044;-62
2021/10/15 04:13:40;;;;;;;14.57;6.45;;;;;;;11.69;71.28;101388.50;5118192;28;20449;-62
2021/10/15 04:16:07;;;;;;;12.20;6.78;;;;;;;11.63;71.11;101390.50;5134773;27;20039;-63
2021/10/15 04:18:34;;;;;;;13.23;6.13;;;;;;;11.67;71.04;101394.34;5134834;27;20383;-62
2021/10/15 04:21:01;;;;;;;11.35;6.45;;;;;;;11.63;71.39;101384.19;5118980;28;20094;-63
2021/10/15 04:23:29;;;;;;;10.30;5.97;;;;;;;11.71;70.86;101381.56;5119142;28;20494;-62
2021/10/15 04:25:56;;;;;;;14.70;6.68;;;;;;;11.61;71.29;101383.66;5119076;28;20054;-62
2021/10/15 04:28:23;;;;;;;13.05;6.93;;;;;;;11.61;70.91;101375.38;5117901;28;20058;-64
2021/10/15 04:30:51;;;;;;;13.45;6.00;;;;;;;11.54;71.40;101377.72;5118257;28;20048;-63
2021/10/15 04:33:18;;;;;;;12.70;6.38;;;;;;;11.64;71.27;101377.53;5117528;28;20048;-62
2021/10/15 04:35:45;;;;;;;12.40;6.65;;;;;;;11.40;71.79;101365.84;5118618;28;20052;-67
2021/10/15 04:38:12;;;;;;;13.80;6.22;;;;;;;11.47;71.68;101364.34;5118789;28;20055;-66
2021/10/15 04:40:40;;;;;;;13.15;7.47;;;;;;;11.32;72.25;101370.94;5099295;28;20048;-66
2021/10/15 04:43:08;;;;;;;13.07;6.65;;;;;;;11.58;71.54;101371.28;5098447;28;20058;-66
2021/10/15 04:45:35;;;;;;;14.88;8.27;;;;;;;11.45;71.75;101366.56;5098041;28;20123;-67
2021/10/15 04:48:03;;;;;;;16.83;8.15;;;;;;;11.24;73.02;101363.34;5098358;28;20047;-66
2021/10/15 04:50:32;;;;;;;14.93;8.13;;;;;;;11.11;73.33;101358.59;5097680;28;20058;-66
2021/10/15 04:52:59;;;;;;;17.23;8.50;;;;;;;10.92;74.02;101355.06;5098203;28;20044;-66
2021/10/15 04:55:27;;;;;;;14.15;8.60;;;;;;;10.83;75.03;101350.53;5098216;28;20055;-67
2021/10/15 04:57:57;;;;;;;13.95;8.65;;;;;;;10.84;75.18;101355.75;5096611;28;20060;-67
2021/10/15 05:00:24;;;;;;;;;;;;;;;10.90;74.70;101346.28;5098069;28;20407;-67
2021/10/15 05:02:52;;;;;;;16.42;8.20;;;;;;;11.09;74.63;101349.81;5098080;28;20378;-67
2021/10/15 05:05:28;;;;;;;13.73;7.43;;;;;;;11.34;73.04;101356.84;5097988;28;20052;-66
2021/10/15 05:07:57;;;;;;;13.15;7.68;;;;;;;11.39;72.42;101353.97;5096852;28;20060;-67
2021/10/15 05:10:25;;;;;;;12.35;7.43;;;;;;;11.30;73.40;101356.63;5096527;28;20382;-68
2021/10/15 05:12:53;;;;;;;14.70;7.50;;;;;;;11.24;72.93;101349.53;5079836;28;20474;-67
2021/10/15 05:15:21;;;;;;;19.23;8.20;;;;;;;11.04;73.90;101346.31;5097480;28;20047;-67
2021/10/15 05:17:49;;;;;;;12.25;7.47;;;;;;;11.21;73.52;101352.91;5096070;28;20054;-67
2021/10/15 05:20:18;;;;;;;13.45;7.88;;;;;;;11.28;73.15;101341.47;5097368;28;20514;-63
2021/10/15 05:22:45;;;;;;;13.52;7.55;;;;;;;11.26;73.15;101350.06;5079471;28;20064;-62
2021/10/15 05:25:13;;;;;;;16.25;8.18;;;;;;;10.85;74.33;101354.63;5097418;28;20451;-64
2021/10/15 05:27:41;;;;;;;16.55;8.90;;;;;;;11.16;73.99;101355.75;5097270;28;20051;-62
2021/10/15 05:30:09;;;;;;;14.93;8.18;;;;;;;11.16;73.48;101355.75;5097032;28;20075;-62
2021/10/15 05:32:37;;;;;;;13.77;8.35;;;;;;;10.86;74.61;101364.53;5095905;28;20059;-61
2021/10/15 05:35:05;;;;;;;17.80;8.50;;;;;;;11.08;74.41;101355.63;5096008;28;20051;-63
2021/10/15 05:37:32;;;;;;;17.65;9.27;;;;;;;11.09;73.98;101351.75;5097212;28;20044;-62
2021/10/15 05:39:59;;;;;;;17.98;9.40;;;;;;;11.03;74.45;101356.56;5110530;28;20074;-62
2021/10/15 05:42:27;;;;;;;15.82;9.30;;;;;;;11.07;74.42;101356.78;5117098;28;20071;-62
2021/10/15 05:44:54;;;;;;;17.20;10.27;;;;;;;11.23;73.58;101358.94;5115927;28;20048;-63
2021/10/15 05:47:22;;;;;;;16.13;8.48;;;;;;;11.19;73.71;101351.59;5133254;27;20051;-64
2021/10/15 05:49:49;;;;;;;13.23;7.28;;;;;;;11.21;73.64;101358.44;5115993;28;20052;-63
2021/10/15 05:52:27;;;;;;;17.13;8.07;;;;;;;11.30;73.22;101356.63;5117021;28;20047;-62
2021/10/15 06:00:04;;;;;;;19.25;9.70;;;;;;;11.31;73.62;101351.94;5116908;28;20059;-63
2021/10/15 06:02:42;;;;;;;20.77;8.60;;;;;;;11.42;72.77;101358.09;5116790;28;20126;-62
2021/10/15 06:16:11;;;;;;;18.30;9.20;;;;;;;11.22;73.38;101368.34;5116740;28;20388;-62
2021/10/15 06:18:41;;;;;;;22.90;10.23;;;;;;;11.30;73.12;101366.81;5099258;28;20055;-63
2021/10/15 06:21:08;;;;;;;22.47;9.33;;;;;;;11.37;73.17;101369.22;5115494;28;20051;-63
2021/10/15 06:23:35;;;;;;;16.92;9.85;;;;;;;11.37;72.88;101372.78;5116757;28;20056;-62
2021/10/15 06:26:03;;;;;;;18.02;9.60;;;;;;;11.14;73.46;101365.47;5116819;28;20048;-64
2021/10/15 06:28:30;;;;;;;20.80;9.98;;;;;;;11.18;73.63;101369.25;5132020;27;20060;-62
2021/10/15 06:30:58;;;;;;;20.65;10.90;;;;;;;10.98;74.13;101375.09;5115945;28;20055;-63
2021/10/15 06:33:25;;;;;;;17.08;10.85;;;;;;;11.40;73.47;101379.63;5116775;28;20047;-63
2021/10/15 06:35:52;;;;;;;27.15;11.32;;;;;;;11.14;73.70;101376.50;5116665;28;20063;-62
2021/10/15 06:38:19;;;;;;;26.50;12.27;;;;;;;10.80;75.12;101379.50;5116683;28;20058;-62
2021/10/15 06:40:47;;;;;;;22.02;11.48;;;;;;;10.84;74.98;101379.75;5096088;28;20083;-62
2021/10/15 06:43:14;;;;;;;23.05;11.02;;;;;;;11.10;74.72;101378.22;5096194;28;20159;-62
2021/10/15 06:45:41;;;;;;;21.73;11.23;;;;;;;11.33;73.71;101378.06;5096043;28;20043;-64
2021/10/15 06:48:09;;;;;;;19.52;10.30;;;;;;;11.48;72.84;101365.13;5096169;28;20071;-63
2021/10/15 06:50:36;;;;;;;23.58;11.05;;;;;;;11.72;72.69;101372.16;5095790;28;20044;-64
2021/10/15 06:53:08;;;;;;;21.90;10.70;;;;;;;11.71;72.12;101370.53;5095962;28;20055;-62
2021/10/15 06:55:36;;;;;;;28.23;11.30;;;;;;;11.94;71.51;101366.75;5094667;28;20055;-63
2021/10/15 06:58:04;;;;;;;25.65;11.68;;;;;;;11.89;71.49;101372.38;5095888;28;20044;-63
2021/10/15 07:00:32;;;;;;;25.05;11.68;;;;;;;11.97;71.31;101368.91;5095344;28;20044;-63
2021/10/15 07:02:59;;;;;;;20.45;11.77;;;;;;;11.77;71.62;101365.75;5095744;28;20052;-65
2021/10/15 07:05:27;;;;;;;21.95;10.98;;;;;;;11.89;71.28;101371.56;5095683;28;20055;-66
2021/10/15 07:07:55;;;;;;;26.00;11.18;;;;;;;11.81;71.53;101367.56;5095782;28;20063;-62
2021/10/15 07:10:22;;;;;;;26.25;12.55;;;;;;;11.98;71.20;101366.94;5095731;28;20051;-62
2021/10/15 07:12:50;;;;;;;94.15;15.77;;;;;;;11.96;71.10;101374.75;5095709;28;20059;-65
2021/10/15 07:15:17;;;;;;;90.60;14.10;;;;;;;11.78;71.72;101370.13;5094313;28;20063;-65
2021/10/15 07:17:44;;;;;;;51.97;12.88;;;;;;;11.80;71.96;101376.16;5094123;28;20051;-70
2021/10/15 07:20:12;;;;;;;42.35;13.50;;;;;;;11.85;71.49;101378.81;5093996;28;20056;-67
2021/10/15 07:22:39;;;;;;;38.28;12.18;;;;;;;11.75;71.80;101374.28;5093521;28;20063;-68
2021/10/15 07:25:08;;;;;;;30.10;11.90;;;;;;;11.73;71.75;101392.31;5095735;28;20284;-67
2021/10/15 07:27:37;;;;;;;32.58;12.55;;;;;;;11.88;71.53;101392.00;5095596;28;20048;-67
2021/10/15 07:30:06;;;;;;;23.25;12.38;;;;;;;11.96;71.25;101391.31;5095466;28;20044;-67
2021/10/15 07:32:34;;;;;;;26.55;12.48;;;;;;;12.02;70.69;101401.94;5095504;28;20063;-66
2021/10/15 07:35:02;;;;;;;26.52;12.25;;;;;;;12.07;70.80;101406.53;5096309;28;20059;-67
2021/10/15 07:37:29;;;;;;;30.35;12.23;;;;;;;11.88;71.52;101400.28;5095602;28;20052;-67
2021/10/15 07:39:56;;;;;;;24.55;11.63;;;;;;;12.10;70.76;101406.72;5108558;28;20055;-66
2021/10/15 07:42:24;;;;;;;24.75;12.10;;;;;;;11.87;71.27;101406.94;5101939;28;20438;-66
2021/10/15 07:44:51;;;;;;;43.28;12.88;;;;;;;11.79;72.06;101397.41;5118513;28;20370;-67
2021/10/15 07:47:18;;;;;;;32.22;12.30;;;;;;;12.04;71.50;101396.94;5119735;28;20604;-68
2021/10/15 07:49:46;;;;;;;25.45;12.13;;;;;;;12.24;70.79;101404.78;5120044;28;20048;-66
2021/10/15 07:52:13;;;;;;;24.67;11.90;;;;;;;12.10;71.10;101403.19;5119614;28;20056;-67
2021/10/15 07:54:40;;;;;;;31.67;12.02;;;;;;;12.14;70.97;101399.47;5119898;27;20056;-66
2021/10/15 07:57:08;;;;;;;32.92;20.70;;;;;;;12.26;70.87;101405.31;5119834;28;20047;-67
2021/10/15 07:59:35;;;;;;;27.08;12.55;;;;;;;12.32;70.86;101411.53;5118309;28;20052;-67
2021/10/15 08:02:03;;;;;;;36.30;15.40;;;;;;;12.28;70.95;101405.81;5119305;28;20052;-67
2021/10/15 08:04:30;;;;;;;29.23;13.13;;;;;;;12.55;70.03;101412.44;5119555;28;20051;-67
2021/10/15 08:06:58;;;;;;;26.00;13.25;;;;;;;12.49;69.84;101406.19;5117806;28;20043;-67
2021/10/15 08:09:25;;;;;;;28.23;13.02;;;;;;;12.42;70.06;101401.09;5119612;28;20051;-67
2021/10/15 08:11:52;;;;;;;29.63;13.07;;;;;;;12.59;69.17;101407.94;5119420;28;20055;-67
2021/10/15 08:14:20;;;;;;;21.60;12.40;;;;;;;12.68;68.89;101417.09;5119492;28;20055;-66
2021/10/15 08:16:49;;;;;;;21.98;12.98;;;;;;;12.76;68.58;101416.41;5119050;28;20043;-67
2021/10/15 08:19:38;;;;;;;29.63;13.55;;;;;;;12.85;68.21;101409.78;5119644;28;20040;-67
2021/10/15 08:22:05;;;;;;;27.48;14.02;;;;;;;12.62;68.54;101412.84;5119127;28;20052;-67
2021/10/15 08:24:33;;;;;;;23.25;13.68;;;;;;;12.78;68.25;101411.38;5119230;27;20047;-68
2021/10/15 08:27:00;;;;;;;29.30;14.00;;;;;;;12.61;69.06;101412.00;5119176;28;20048;-67
2021/10/15 08:29:28;;;;;;;32.25;14.55;;;;;;;12.84;68.40;101410.13;5119022;28;20054;-67
2021/10/15 08:31:55;;;;;;;23.85;13.48;;;;;;;12.81;67.99;101410.75;5118658;28;20071;-66
2021/10/15 08:34:24;;;;;;;27.77;13.23;;;;;;;12.97;67.73;101415.59;5119031;28;20126;-67
2021/10/15 08:36:53;;;;;;;27.70;13.40;;;;;;;13.03;67.62;101408.03;5118904;28;20050;-68
2021/10/15 08:39:23;;;;;;;26.83;13.30;;;;;;;13.04;67.18;101407.72;5109745;28;20418;-70
2021/10/15 08:41:52;;;;;;;32.70;14.00;;;;;;;13.16;66.66;101404.41;5096961;28;20510;-68
2021/10/15 08:44:20;;;;;;;31.13;18.13;;;;;;;13.04;67.28;101418.78;5098272;28;20055;-67
2021/10/15 08:46:47;;;;;;;42.90;25.73;;;;;;;13.24;67.03;101415.53;5097851;28;20052;-67
2021/10/15 08:49:35;;;;;;;28.90;14.50;;;;;;;13.13;67.28;101418.84;5083117;28;20415;-66
2021/10/15 08:52:02;;;;;;;32.00;14.73;;;;;;;13.39;66.00;101411.56;5096644;28;20052;-67
2021/10/15 08:54:32;;;;;;;35.70;14.38;;;;;;;13.48;65.60;101418.78;5097991;28;20055;-66
2021/10/15 08:57:00;;;;;;;30.40;14.40;;;;;;;13.23;65.65;101416.66;5113963;28;20048;-67
2021/10/15 08:59:36;;;;;;;32.45;14.65;;;;;;;13.24;65.38;101418.31;5098055;28;20389;-68
2021/10/15 09:02:13;;;;;;;39.92;15.77;;;;;;;13.36;65.63;101426.03;5096282;28;20404;-67
2021/10/15 09:04:43;;;;;;;42.65;22.25;;;;;;;13.32;65.04;101423.06;5098200;28;20054;-67
2021/10/15 09:07:11;;;;;;;25.10;14.38;;;;;;;13.40;65.07;101414.03;5097859;28;20044;-66
2021/10/15 09:09:38;;;;;;;28.40;14.55;;;;;;;13.70;63.70;101422.69;5098100;28;20056;-67
2021/10/15 09:12:18;;;;;;;28.52;13.57;;;;;;;13.82;63.66;101422.91;5097472;28;20510;-67
2021/10/15 09:14:47;;;;;;;26.80;14.23;;;;;;;13.79;63.55;101424.34;5097381;28;20383;-67
2021/10/15 09:17:25;;;;;;;28.25;14.23;;;;;;;13.76;62.98;101427.75;5097565;28;20044;-67
2021/10/15 09:19:55;;;;;;;25.67;14.15;;;;;;;13.62;63.25;101426.19;5097690;28;20048;-67
2021/10/15 09:22:30;;;;;;;30.05;14.00;;;;;;;13.64;63.41;101426.69;5097494;28;20059;-68
2021/10/15 09:24:57;;;;;;;28.98;13.55;;;;;;;13.70;63.52;101426.28;5097630;28;20384;-67
2021/10/15 09:27:32;;;;;;;24.45;14.07;;;;;;;13.84;63.08;101434.47;5097531;28;20062;-67
2021/10/15 09:30:06;;;;;;;26.80;13.57;;;;;;;13.68;62.81;101439.59;5097746;28;20445;-68
2021/10/15 09:32:37;;;;;;;26.85;14.57;;;;;;;13.34;63.47;101440.19;5096117;28;20071;-67
2021/10/15 09:35:06;;;;;;;22.80;12.68;;;;;;;13.20;63.40;101450.47;5096258;28;20063;-68
2021/10/15 09:37:35;;;;;;;19.42;12.13;;;;;;;13.35;63.38;101446.53;5095321;28;20048;-69
2021/10/15 09:40:10;;;;;;;19.38;11.65;;;;;;;13.63;62.05;101450.00;5111248;28;20059;-69
2021/10/15 09:42:43;;;;;;;23.02;11.27;;;;;;;13.85;60.61;101442.47;5117608;28;20070;-68
2021/10/15 09:45:17;;;;;;;21.08;12.35;;;;;;;13.26;61.78;101449.25;5117370;28;20052;-67
2021/10/15 09:47:45;;;;;;;20.13;12.02;;;;;;;13.49;61.79;101453.63;5117757;28;20047;-68
2021/10/15 09:50:15;;;;;;;32.50;12.50;;;;;;;13.08;62.76;101455.75;5117618;28;20067;-67
2021/10/15 09:52:46;;;;;;;26.00;12.13;;;;;;;13.04;63.19;101451.16;5117369;28;20418;-67
2021/10/15 09:55:18;;;;;;;15.82;11.38;;;;;;;13.47;62.43;101450.38;5117835;28;20044;-67
2021/10/15 09:57:47;;;;;;;19.50;12.05;;;;;;;13.87;61.43;101450.47;5117357;28;20051;-68
2021/10/15 10:00:19;;;;;;;31.27;13.63;;;;;;;13.80;61.11;101452.84;5117351;28;20418;-67
2021/10/15 10:02:47;;;;;;;24.75;12.07;;;;;;;13.78;61.31;101442.09;5117080;28;20687;-68
2021/10/15 10:05:17;;;;;;;24.08;12.35;;;;;;;14.19;60.71;101447.38;5117959;28;20494;-67
2021/10/15 10:07:46;;;;;;;29.35;13.45;;;;;;;14.31;60.53;101447.59;5117189;28;20040;-67
2021/10/15 10:10:21;;;;;;;25.63;12.93;;;;;;;14.57;60.05;101449.28;5117350;28;20051;-67
2021/10/15 10:12:50;;;;;;;19.70;11.35;;;;;;;15.08;58.93;101447.78;5116789;28;20088;-68
2021/10/15 10:15:20;;;;;;;29.55;11.48;;;;;;;15.25;57.51;101442.22;5116757;28;20055;-67
2021/10/15 10:18:21;;;;;;;23.25;12.52;;;;;;;15.30;57.52;101451.19;5117178;28;20052;-67
2021/10/15 10:21:02;;;;;;;30.42;11.77;;;;;;;15.61;56.55;101442.69;5116723;28;20071;-67
2021/10/15 10:23:37;;;;;;;17.88;10.30;;;;;;;15.42;56.56;101445.84;5116659;28;20051;-67
2021/10/15 10:26:07;;;;;;;25.02;11.15;;;;;;;15.16;57.02;101463.59;5116930;28;20380;-67
2021/10/15 10:28:35;;;;;;;26.13;10.70;;;;;;;14.77;58.31;101453.44;5116826;28;20054;-69
2021/10/15 10:31:05;;;;;;;22.20;10.20;;;;;;;14.35;60.10;101459.66;5116620;28;20482;-67
2021/10/15 10:33:59;;;;;;;22.10;11.73;;;;;;;14.62;60.19;101460.25;5098290;28;20529;-67
2021/10/15 10:36:28;;;;;;;20.58;11.35;;;;;;;14.22;62.39;101455.84;5115611;28;20048;-68
2021/10/15 10:38:55;;;;;;;18.13;11.02;;;;;;;14.11;63.83;101456.44;5112150;28;20040;-68
2021/10/15 10:41:28;;;;;;;23.05;11.88;;;;;;;14.41;63.03;101452.84;5094990;28;20052;-68
2021/10/15 10:43:56;;;;;;;26.20;11.55;;;;;;;14.66;62.26;101454.91;5096026;28;20051;-68
2021/10/15 10:46:25;;;;;;;19.48;10.50;;;;;;;14.90;62.12;101455.25;5095754;28;20503;-66
2021/10/15 10:48:52;;;;;;;18.42;10.98;;;;;;;14.91;61.84;101465.19;5094900;28;20048;-67
2021/10/15 10:51:20;;;;;;;27.08;11.77;;;;;;;14.80;61.85;101457.53;5094758;28;20044;-67
2021/10/15 10:54:20;;;;;;;20.92;11.70;;;;;;;14.40;63.55;101465.09;5095775;28;20525;-68
2021/10/15 10:56:52;;;;;;;25.17;11.60;;;;;;;14.87;62.68;101455.88;5093008;28;20060;-68
2021/10/15 10:59:23;;;;;;;22.10;11.00;;;;;;;15.47;60.71;101456.75;5110942;28;20055;-67
2021/10/15 11:02:15;;;;;;;19.60;10.75;;;;;;;15.28;61.57;101452.66;5093747;28;20059;-67
2021/10/15 11:04:42;;;;;;;26.38;11.38;;;;;;;16.00;59.59;101447.19;5094479;28;20088;-69
2021/10/15 11:07:15;;;;;;;22.27;10.35;;;;;;;15.92;59.66;101445.25;5095407;28;20093;-67
2021/10/15 11:09:46;;;;;;;18.40;10.15;;;;;;;16.41;58.38;101438.97;5094319;28;20059;-67
2021/10/15 11:12:33;;;;;;;24.63;11.13;;;;;;;15.53;60.21;101446.31;5095431;28;20040;-66
2021/10/15 11:15:01;;;;;;;23.40;10.18;;;;;;;15.78;60.00;101432.38;5094778;28;20055;-68
2021/10/15 11:17:35;;;;;;;26.38;10.57;;;;;;;16.13;59.47;101435.00;5095368;28;20039;-67
2021/10/15 11:20:18;;;;;;;21.63;10.52;;;;;;;16.22;58.69;101436.63;5095463;28;20062;-67
2021/10/15 11:22:51;;;;;;;17.30;10.20;;;;;;;16.45;58.06;101428.81;5095235;28;20056;-67
2021/10/15 11:25:19;;;;;;;28.30;10.63;;;;;;;16.06;58.98;101432.75;5094201;28;20040;-69
2021/10/15 11:27:58;;;;;;;20.67;9.45;;;;;;;16.40;58.75;101420.69;5095825;28;20616;-66
2021/10/15 11:30:28;;;;;;;17.80;8.15;;;;;;;15.68;60.81;101427.16;5095320;28;20064;-67
2021/10/15 11:32:56;;;;;;;16.80;8.80;;;;;;;15.79;60.39;101424.84;5095455;28;20044;-67
2021/10/15 11:35:35;;;;;;;19.98;9.30;;;;;;;15.59;61.57;101433.88;5095471;28;20048;-67
2021/10/15 11:38:13;;;;;;;13.98;7.88;;;;;;;16.07;59.86;101426.06;5095501;28;20055;-67